sensor_id;sensor_type;location;lat;lon;timestamp;temperature;humidity
18868;DHT22;9563;49.240;9.088;2023-07-08T04:01:15;19.10;99.20
18868;DHT22;9563;49.240;9.088;2023-07-08T04:03:43;19.00;99.70
18868;DHT22;9563;49.240;9.088;2023-07-08T04:06:10;19.10;99.90
18868;DHT22;9563;49.240;9.088;2023-07-08T04:08:37;19.20;99.70
18868;DHT22;9563;49.240;9.088;2023-07-08T04:11:03;19.20;99.30
18868;DHT22;9563;49.240;9.088;2023-07-08T04:13:31;19.20;99.50
18868;DHT22;9563;49.240;9.088;2023-07-08T04:16:01;19.10;99.60
18868;DHT22;9563;49.240;9.088;2023-07-08T04:18:29;19.20;99.90
18868;DHT22;9563;49.240;9.088;2023-07-08T04:20:56;19.10;99.90
18868;DHT22;9563;49.240;9.088;2023-07-08T04:23:25;19.10;99.90
18868;DHT22;9563;49.240;9.088;2023-07-08T04:25:54;19.00;99.90
18868;DHT22;9563;49.240;9.088;2023-07-08T04:28:22;19.00;99.90
18868;DHT22;9563;49.240;9.088;2023-07-08T04:30:48;19.00;99.90
18868;DHT22;9563;49.240;9.088;2023-07-08T04:33:17;19.00;99.90
18868;DHT22;9563;49.240;9.088;2023-07-08T04:35:45;19.00;99.90
18868;DHT22;9563;49.240;9.088;2023-07-08T04:38:17;19.00;99.90
18868;DHT22;9563;49.240;9.088;2023-07-08T04:40:45;19.00;99.90
18868;DHT22;9563;49.240;9.088;2023-07-08T04:43:11;19.00;99.90
18868;DHT22;9563;49.240;9.088;2023-07-08T04:45:39;19.00;99.90
18868;DHT22;9563;49.240;9.088;2023-07-08T04:48:06;19.00;99.90
18868;DHT22;9563;49.240;9.088;2023-07-08T04:50:39;19.00;99.90
18868;DHT22;9563;49.240;9.088;2023-07-08T04:53:07;19.00;99.90
18868;DHT22;9563;49.240;9.088;2023-07-08T04:55:34;19.10;99.90
18868;DHT22;9563;49.240;9.088;2023-07-08T04:58:01;19.00;99.90
18868;DHT22;9563;49.240;9.088;2023-07-08T05:00:28;19.00;99.90
18868;DHT22;9563;49.240;9.088;2023-07-08T05:02:55;19.00;99.90
18868;DHT22;9563;49.240;9.088;2023-07-08T05:05:22;19.10;99.90
18868;DHT22;9563;49.240;9.088;2023-07-08T05:07:49;19.10;99.90
18868;DHT22;9563;49.240;9.088;2023-07-08T05:10:18;19.20;99.90
18868;DHT22;9563;49.240;9.088;2023-07-08T05:12:46;19.30;99.90
18868;DHT22;9563;49.240;9.088;2023-07-08T05:15:13;19.30;99.90
18868;DHT22;9563;49.240;9.088;2023-07-08T05:17:41;19.40;99.90
18868;DHT22;9563;49.240;9.088;2023-07-08T05:20:10;19.40;99.90
18868;DHT22;9563;49.240;9.088;2023-07-08T05:22:38;19.50;99.90
18868;DHT22;9563;49.240;9.088;2023-07-08T05:25:05;19.50;99.90
18868;DHT22;9563;49.240;9.088;2023-07-08T05:27:34;19.60;99.90
18868;DHT22;9563;49.240;9.088;2023-07-08T05:30:01;19.70;99.90
18868;DHT22;9563;49.240;9.088;2023-07-08T05:32:29;19.80;99.90
18868;DHT22;9563;49.240;9.088;2023-07-08T05:34:56;19.90;99.90
18868;DHT22;9563;49.240;9.088;2023-07-08T05:37:23;20.00;99.90
18868;DHT22;9563;49.240;9.088;2023-07-08T05:39:51;20.10;99.90
18868;DHT22;9563;49.240;9.088;2023-07-08T05:42:18;20.20;99.90
18868;DHT22;9563;49.240;9.088;2023-07-08T05:44:46;20.20;99.90
18868;DHT22;9563;49.240;9.088;2023-07-08T05:47:13;20.30;99.90
18868;DHT22;9563;49.240;9.088;2023-07-08T05:49:40;20.40;99.90
18868;DHT22;9563;49.240;9.088;2023-07-08T05:52:07;20.50;99.90
18868;DHT22;9563;49.240;9.088;2023-07-08T05:54:36;20.60;99.90
18868;DHT22;9563;49.240;9.088;2023-07-08T05:57:04;20.80;99.90
18868;DHT22;9563;49.240;9.088;2023-07-08T05:59:31;20.90;99.90
18868;DHT22;9563;49.240;9.088;2023-07-08T06:01:59;21.10;99.90
18868;DHT22;9563;49.240;9.088;2023-07-08T06:04:27;21.30;99.90
18868;DHT22;9563;49.240;9.088;2023-07-08T06:06:53;21.50;99.90
18868;DHT22;9563;49.240;9.088;2023-07-08T06:09:20;21.70;99.90
18868;DHT22;9563;49.240;9.088;2023-07-08T06:11:47;21.90;99.90
18868;DHT22;9563;49.240;9.088;2023-07-08T06:14:14;22.00;99.90
18868;DHT22;9563;49.240;9.088;2023-07-08T06:16:41;22.20;99.90
18868;DHT22;9563;49.240;9.088;2023-07-08T06:19:09;22.30;99.90
18868;DHT22;9563;49.240;9.088;2023-07-08T06:21:36;22.30;99.40
18868;DHT22;9563;49.240;9.088;2023-07-08T06:24:03;22.30;99.90
18868;DHT22;9563;49.240;9.088;2023-07-08T06:26:30;22.20;99.90
18868;DHT22;9563;49.240;9.088;2023-07-08T06:28:57;22.10;99.90
18868;DHT22;9563;49.240;9.088;2023-07-08T06:31:24;22.00;99.90
18868;DHT22;9563;49.240;9.088;2023-07-08T06:33:51;21.90;99.90
18868;DHT22;9563;49.240;9.088;2023-07-08T06:36:19;21.80;99.90
18868;DHT22;9563;49.240;9.088;2023-07-08T06:38:49;21.70;99.90
18868;DHT22;9563;49.240;9.088;2023-07-08T06:41:15;21.60;99.90
18868;DHT22;9563;49.240;9.088;2023-07-08T06:43:43;21.60;99.90
18868;DHT22;9563;49.240;9.088;2023-07-08T06:46:10;21.60;99.90
18868;DHT22;9563;49.240;9.088;2023-07-08T06:48:37;21.60;99.90
18868;DHT22;9563;49.240;9.088;2023-07-08T06:51:03;21.40;99.90
18868;DHT22;9563;49.240;9.088;2023-07-08T06:53:31;21.50;99.90
18868;DHT22;9563;49.240;9.088;2023-07-08T06:55:58;21.70;99.90
18868;DHT22;9563;49.240;9.088;2023-07-08T06:58:26;22.00;99.90
18868;DHT22;9563;49.240;9.088;2023-07-08T07:00:57;22.20;99.90
18868;DHT22;9563;49.240;9.088;2023-07-08T07:03:24;22.50;99.90
18868;DHT22;9563;49.240;9.088;2023-07-08T07:05:51;22.70;99.90
18868;DHT22;9563;49.240;9.088;2023-07-08T07:08:18;22.90;99.90
18868;DHT22;9563;49.240;9.088;2023-07-08T07:10:46;23.20;99.90
18868;DHT22;9563;49.240;9.088;2023-07-08T07:13:13;23.40;99.90
18868;DHT22;9563;49.240;9.088;2023-07-08T07:15:40;23.50;99.90
18868;DHT22;9563;49.240;9.088;2023-07-08T07:18:07;23.80;99.90
18868;DHT22;9563;49.240;9.088;2023-07-08T07:20:37;24.00;99.90
18868;DHT22;9563;49.240;9.088;2023-07-08T07:23:04;24.10;99.90
18868;DHT22;9563;49.240;9.088;2023-07-08T07:25:31;24.40;99.90
18868;DHT22;9563;49.240;9.088;2023-07-08T07:27:59;24.50;98.80
18868;DHT22;9563;49.240;9.088;2023-07-08T07:30:26;24.70;99.20
18868;DHT22;9563;49.240;9.088;2023-07-08T07:32:53;24.80;97.80
18868;DHT22;9563;49.240;9.088;2023-07-08T07:35:20;24.90;97.40
18868;DHT22;9563;49.240;9.088;2023-07-08T07:37:46;24.90;97.00
18868;DHT22;9563;49.240;9.088;2023-07-08T07:40:14;25.00;96.40
18868;DHT22;9563;49.240;9.088;2023-07-08T07:42:42;25.20;98.00
18868;DHT22;9563;49.240;9.088;2023-07-08T07:45:10;25.40;98.80
18868;DHT22;9563;49.240;9.088;2023-07-08T07:47:38;25.60;96.90
18868;DHT22;9563;49.240;9.088;2023-07-08T07:50:06;25.80;97.00
18868;DHT22;9563;49.240;9.088;2023-07-08T07:52:33;26.10;97.90
18868;DHT22;9563;49.240;9.088;2023-07-08T07:55:01;26.30;95.30
18868;DHT22;9563;49.240;9.088;2023-07-08T07:57:28;26.50;95.00
18868;DHT22;9563;49.240;9.088;2023-07-08T07:59:55;26.50;96.10
18868;DHT22;9563;49.240;9.088;2023-07-08T08:02:23;26.70;96.00
18868;DHT22;9563;49.240;9.088;2023-07-08T08:04:49;26.80;96.30
18868;DHT22;9563;49.240;9.088;2023-07-08T08:07:16;27.00;95.60
18868;DHT22;9563;49.240;9.088;2023-07-08T08:09:43;27.00;95.00
18868;DHT22;9563;49.240;9.088;2023-07-08T08:12:11;27.10;94.80
18868;DHT22;9563;49.240;9.088;2023-07-08T08:14:38;27.30;97.40
18868;DHT22;9563;49.240;9.088;2023-07-08T08:17:05;27.20;93.90
18868;DHT22;9563;49.240;9.088;2023-07-08T08:19:34;27.40;94.40
18868;DHT22;9563;49.240;9.088;2023-07-08T08:22:01;27.40;93.70
18868;DHT22;9563;49.240;9.088;2023-07-08T08:24:27;27.70;94.60
18868;DHT22;9563;49.240;9.088;2023-07-08T08:26:54;27.70;93.30
18868;DHT22;9563;49.240;9.088;2023-07-08T08:29:21;27.60;93.50
18868;DHT22;9563;49.240;9.088;2023-07-08T08:31:48;27.70;94.20
18868;DHT22;9563;49.240;9.088;2023-07-08T08:34:16;27.80;94.70
18868;DHT22;9563;49.240;9.088;2023-07-08T08:36:44;28.10;93.60
18868;DHT22;9563;49.240;9.088;2023-07-08T08:39:11;28.10;92.40
18868;DHT22;9563;49.240;9.088;2023-07-08T08:41:40;28.00;92.40
18868;DHT22;9563;49.240;9.088;2023-07-08T08:44:13;28.00;93.20
18868;DHT22;9563;49.240;9.088;2023-07-08T08:46:45;27.70;92.70
18868;DHT22;9563;49.240;9.088;2023-07-08T08:49:21;27.70;92.70
18868;DHT22;9563;49.240;9.088;2023-07-08T08:51:51;27.50;92.70
18868;DHT22;9563;49.240;9.088;2023-07-08T08:54:18;27.30;93.10
18868;DHT22;9563;49.240;9.088;2023-07-08T08:56:51;27.30;93.30
18868;DHT22;9563;49.240;9.088;2023-07-08T08:59:31;27.40;93.80
18868;DHT22;9563;49.240;9.088;2023-07-08T09:02:07;27.40;94.00
18868;DHT22;9563;49.240;9.088;2023-07-08T09:04:40;27.40;94.10
18868;DHT22;9563;49.240;9.088;2023-07-08T09:07:14;27.50;94.60
18868;DHT22;9563;49.240;9.088;2023-07-08T09:09:47;27.90;94.50
18868;DHT22;9563;49.240;9.088;2023-07-08T09:12:18;28.10;93.60
18868;DHT22;9563;49.240;9.088;2023-07-08T09:14:47;28.40;92.90
18868;DHT22;9563;49.240;9.088;2023-07-08T09:17:21;28.70;92.80
18868;DHT22;9563;49.240;9.088;2023-07-08T09:19:52;29.00;92.40
18868;DHT22;9563;49.240;9.088;2023-07-08T09:22:34;29.20;90.30
18868;DHT22;9563;49.240;9.088;2023-07-08T09:25:05;29.40;91.50
18868;DHT22;9563;49.240;9.088;2023-07-08T09:27:35;29.60;93.40
18868;DHT22;9563;49.240;9.088;2023-07-08T09:30:02;29.70;90.90
18868;DHT22;9563;49.240;9.088;2023-07-08T09:32:29;29.80;89.10
18868;DHT22;9563;49.240;9.088;2023-07-08T09:35:03;30.00;87.70
18868;DHT22;9563;49.240;9.088;2023-07-08T09:37:34;29.90;88.20
18868;DHT22;9563;49.240;9.088;2023-07-08T09:40:03;29.90;88.20
18868;DHT22;9563;49.240;9.088;2023-07-08T09:42:33;29.80;85.70
18868;DHT22;9563;49.240;9.088;2023-07-08T09:45:03;30.00;86.70
18868;DHT22;9563;49.240;9.088;2023-07-08T09:47:35;30.00;83.30
18868;DHT22;9563;49.240;9.088;2023-07-08T09:50:10;29.70;82.60
18868;DHT22;9563;49.240;9.088;2023-07-08T09:52:43;29.80;83.80
18868;DHT22;9563;49.240;9.088;2023-07-08T09:55:11;29.80;83.70
18868;DHT22;9563;49.240;9.088;2023-07-08T09:57:38;29.70;81.20
18868;DHT22;9563;49.240;9.088;2023-07-08T10:00:08;29.60;82.60
18868;DHT22;9563;49.240;9.088;2023-07-08T10:02:40;29.40;82.10
18868;DHT22;9563;49.240;9.088;2023-07-08T10:05:19;29.40;84.90
18868;DHT22;9563;49.240;9.088;2023-07-08T10:07:53;29.20;83.60
18868;DHT22;9563;49.240;9.088;2023-07-08T10:10:28;29.20;83.20
18868;DHT22;9563;49.240;9.088;2023-07-08T10:12:58;29.30;85.30
18868;DHT22;9563;49.240;9.088;2023-07-08T10:15:31;29.40;86.80
18868;DHT22;9563;49.240;9.088;2023-07-08T10:17:58;29.80;86.40
18868;DHT22;9563;49.240;9.088;2023-07-08T10:20:33;30.10;82.60
18868;DHT22;9563;49.240;9.088;2023-07-08T10:23:12;30.40;82.40
18868;DHT22;9563;49.240;9.088;2023-07-08T10:25:49;30.50;80.30
18868;DHT22;9563;49.240;9.088;2023-07-08T10:28:25;30.80;81.70
18868;DHT22;9563;49.240;9.088;2023-07-08T10:31:07;31.10;84.10
18868;DHT22;9563;49.240;9.088;2023-07-08T10:33:49;31.50;86.80
18868;DHT22;9563;49.240;9.088;2023-07-08T10:36:23;31.70;83.90
18868;DHT22;9563;49.240;9.088;2023-07-08T10:39:11;31.90;85.20
18868;DHT22;9563;49.240;9.088;2023-07-08T10:41:48;32.30;83.70
18868;DHT22;9563;49.240;9.088;2023-07-08T10:44:24;32.30;77.00
18868;DHT22;9563;49.240;9.088;2023-07-08T10:46:58;32.10;74.50
18868;DHT22;9563;49.240;9.088;2023-07-08T10:49:50;32.10;74.20
18868;DHT22;9563;49.240;9.088;2023-07-08T10:52:35;32.30;75.60
18868;DHT22;9563;49.240;9.088;2023-07-08T10:55:35;32.50;79.60
18868;DHT22;9563;49.240;9.088;2023-07-08T10:58:26;32.80;82.70
18868;DHT22;9563;49.240;9.088;2023-07-08T11:01:00;32.80;79.30
18868;DHT22;9563;49.240;9.088;2023-07-08T11:03:48;32.80;79.10
18868;DHT22;9563;49.240;9.088;2023-07-08T11:06:20;32.80;78.60
18868;DHT22;9563;49.240;9.088;2023-07-08T11:08:53;33.00;81.40
18868;DHT22;9563;49.240;9.088;2023-07-08T11:11:31;33.00;77.10
18868;DHT22;9563;49.240;9.088;2023-07-08T11:14:04;33.10;79.60
18868;DHT22;9563;49.240;9.088;2023-07-08T11:16:36;33.30;81.50
18868;DHT22;9563;49.240;9.088;2023-07-08T11:19:06;33.40;76.20
18868;DHT22;9563;49.240;9.088;2023-07-08T11:21:37;33.40;70.90
18868;DHT22;9563;49.240;9.088;2023-07-08T11:24:13;33.40;72.60
18868;DHT22;9563;49.240;9.088;2023-07-08T11:26:46;33.60;73.70
18868;DHT22;9563;49.240;9.088;2023-07-08T11:29:18;33.70;75.30
18868;DHT22;9563;49.240;9.088;2023-07-08T11:31:46;33.60;68.60
18868;DHT22;9563;49.240;9.088;2023-07-08T11:34:16;33.50;70.20
18868;DHT22;9563;49.240;9.088;2023-07-08T11:36:44;33.50;69.80
18868;DHT22;9563;49.240;9.088;2023-07-08T11:39:31;33.50;71.70
18868;DHT22;9563;49.240;9.088;2023-07-08T11:42:14;33.50;68.20
18868;DHT22;9563;49.240;9.088;2023-07-08T11:44:43;33.40;66.70
18868;DHT22;9563;49.240;9.088;2023-07-08T11:47:16;33.40;67.90
18868;DHT22;9563;49.240;9.088;2023-07-08T11:49:47;33.40;68.30
18868;DHT22;9563;49.240;9.088;2023-07-08T11:52:18;33.20;66.90
18868;DHT22;9563;49.240;9.088;2023-07-08T11:54:47;33.40;71.30
18868;DHT22;9563;49.240;9.088;2023-07-08T11:57:25;33.50;70.70
18868;DHT22;9563;49.240;9.088;2023-07-08T12:00:13;33.70;70.60
18868;DHT22;9563;49.240;9.088;2023-07-08T12:02:53;33.80;71.30
18868;DHT22;9563;49.240;9.088;2023-07-08T12:05:33;34.00;73.40
18868;DHT22;9563;49.240;9.088;2023-07-08T12:08:01;34.00;72.50
18868;DHT22;9563;49.240;9.088;2023-07-08T12:10:32;34.20;74.60
18868;DHT22;9563;49.240;9.088;2023-07-08T12:13:02;34.30;72.60
18868;DHT22;9563;49.240;9.088;2023-07-08T12:15:31;34.20;73.60
18868;DHT22;9563;49.240;9.088;2023-07-08T12:18:00;34.30;75.30
18868;DHT22;9563;49.240;9.088;2023-07-08T12:20:31;34.00;65.00
18868;DHT22;9563;49.240;9.088;2023-07-08T12:22:59;33.50;65.90
18868;DHT22;9563;49.240;9.088;2023-07-08T12:25:31;33.60;69.10
18868;DHT22;9563;49.240;9.088;2023-07-08T12:28:02;33.80;68.60
18868;DHT22;9563;49.240;9.088;2023-07-08T12:30:32;33.80;67.60
18868;DHT22;9563;49.240;9.088;2023-07-08T12:33:00;33.90;67.60
18868;DHT22;9563;49.240;9.088;2023-07-08T12:35:28;33.80;65.40
18868;DHT22;9563;49.240;9.088;2023-07-08T12:37:58;33.90;67.10
18868;DHT22;9563;49.240;9.088;2023-07-08T12:40:28;34.00;69.90
18868;DHT22;9563;49.240;9.088;2023-07-08T12:42:56;34.10;68.40
18868;DHT22;9563;49.240;9.088;2023-07-08T12:45:28;34.20;69.00
18868;DHT22;9563;49.240;9.088;2023-07-08T12:47:56;34.20;69.90
18868;DHT22;9563;49.240;9.088;2023-07-08T12:50:23;34.30;67.20
18868;DHT22;9563;49.240;9.088;2023-07-08T12:52:50;34.00;63.50
18868;DHT22;9563;49.240;9.088;2023-07-08T12:55:17;33.90;62.90
18868;DHT22;9563;49.240;9.088;2023-07-08T12:57:46;33.90;65.60
18868;DHT22;9563;49.240;9.088;2023-07-08T13:00:19;33.50;61.40
18868;DHT22;9563;49.240;9.088;2023-07-08T13:02:53;33.50;63.30
18868;DHT22;9563;49.240;9.088;2023-07-08T13:05:22;33.40;62.80
18868;DHT22;9563;49.240;9.088;2023-07-08T13:07:50;33.30;62.20
18868;DHT22;9563;49.240;9.088;2023-07-08T13:10:21;33.30;62.00
18868;DHT22;9563;49.240;9.088;2023-07-08T13:12:52;33.30;63.80
18868;DHT22;9563;49.240;9.088;2023-07-08T13:15:22;33.30;63.70
18868;DHT22;9563;49.240;9.088;2023-07-08T13:17:51;33.50;65.90
18868;DHT22;9563;49.240;9.088;2023-07-08T13:20:18;33.50;66.00
18868;DHT22;9563;49.240;9.088;2023-07-08T13:22:52;33.50;64.20
18868;DHT22;9563;49.240;9.088;2023-07-08T13:25:26;33.50;62.40
18868;DHT22;9563;49.240;9.088;2023-07-08T13:27:58;33.30;62.20
18868;DHT22;9563;49.240;9.088;2023-07-08T13:30:27;33.30;62.80
18868;DHT22;9563;49.240;9.088;2023-07-08T13:32:57;33.30;62.60
18868;DHT22;9563;49.240;9.088;2023-07-08T13:35:26;33.20;62.10
18868;DHT22;9563;49.240;9.088;2023-07-08T13:37:55;33.20;61.80
18868;DHT22;9563;49.240;9.088;2023-07-08T13:40:22;33.20;62.40
18868;DHT22;9563;49.240;9.088;2023-07-08T13:42:52;33.20;62.70
18868;DHT22;9563;49.240;9.088;2023-07-08T13:45:24;33.30;63.90
18868;DHT22;9563;49.240;9.088;2023-07-08T13:48:01;33.50;66.40
18868;DHT22;9563;49.240;9.088;2023-07-08T13:50:41;33.50;67.20
18868;DHT22;9563;49.240;9.088;2023-07-08T13:53:21;33.70;67.70
18868;DHT22;9563;49.240;9.088;2023-07-08T13:55:55;33.70;62.80
18868;DHT22;9563;49.240;9.088;2023-07-08T13:58:26;33.50;61.30
18868;DHT22;9563;49.240;9.088;2023-07-08T14:00:53;33.40;60.40
18868;DHT22;9563;49.240;9.088;2023-07-08T14:03:22;33.50;62.50
18868;DHT22;9563;49.240;9.088;2023-07-08T14:05:50;33.50;62.70
18868;DHT22;9563;49.240;9.088;2023-07-08T14:08:17;33.50;62.60
18868;DHT22;9563;49.240;9.088;2023-07-08T14:10:44;33.50;62.70
18868;DHT22;9563;49.240;9.088;2023-07-08T14:13:11;33.50;61.40
18868;DHT22;9563;49.240;9.088;2023-07-08T14:15:39;33.30;61.10
18868;DHT22;9563;49.240;9.088;2023-07-08T14:18:07;33.20;61.30
18868;DHT22;9563;49.240;9.088;2023-07-08T14:20:38;33.20;60.40
18868;DHT22;9563;49.240;9.088;2023-07-08T14:23:04;33.10;60.70
18868;DHT22;9563;49.240;9.088;2023-07-08T14:25:31;33.00;59.80
18868;DHT22;9563;49.240;9.088;2023-07-08T14:27:58;33.00;61.00
18868;DHT22;9563;49.240;9.088;2023-07-08T14:30:25;33.00;60.90
18868;DHT22;9563;49.240;9.088;2023-07-08T14:32:52;33.10;60.70
18868;DHT22;9563;49.240;9.088;2023-07-08T14:35:21;33.00;60.10
18868;DHT22;9563;49.240;9.088;2023-07-08T14:37:50;33.10;61.90
18868;DHT22;9563;49.240;9.088;2023-07-08T14:40:23;33.20;63.80
18868;DHT22;9563;49.240;9.088;2023-07-08T14:42:56;33.30;63.40
18868;DHT22;9563;49.240;9.088;2023-07-08T14:45:23;33.40;61.40
18868;DHT22;9563;49.240;9.088;2023-07-08T14:47:53;33.30;60.80
18868;DHT22;9563;49.240;9.088;2023-07-08T14:50:20;33.10;60.60
18868;DHT22;9563;49.240;9.088;2023-07-08T14:52:47;33.00;59.20
18868;DHT22;9563;49.240;9.088;2023-07-08T14:55:16;33.00;60.30
18868;DHT22;9563;49.240;9.088;2023-07-08T14:57:45;33.00;59.80
18868;DHT22;9563;49.240;9.088;2023-07-08T15:00:14;33.10;60.60
18868;DHT22;9563;49.240;9.088;2023-07-08T15:02:44;33.20;60.60
18868;DHT22;9563;49.240;9.088;2023-07-08T15:05:16;33.30;60.40
18868;DHT22;9563;49.240;9.088;2023-07-08T15:07:43;33.30;59.10
18868;DHT22;9563;49.240;9.088;2023-07-08T15:10:11;33.20;59.90
18868;DHT22;9563;49.240;9.088;2023-07-08T15:12:39;33.30;61.20
18868;DHT22;9563;49.240;9.088;2023-07-08T15:15:14;33.40;63.80
18868;DHT22;9563;49.240;9.088;2023-07-08T15:17:41;33.50;63.20
18868;DHT22;9563;49.240;9.088;2023-07-08T15:20:13;33.50;59.30
18868;DHT22;9563;49.240;9.088;2023-07-08T15:22:41;33.50;59.80
18868;DHT22;9563;49.240;9.088;2023-07-08T15:25:10;33.60;60.70
18868;DHT22;9563;49.240;9.088;2023-07-08T15:27:40;33.60;61.10
18868;DHT22;9563;49.240;9.088;2023-07-08T15:30:16;33.70;62.80
18868;DHT22;9563;49.240;9.088;2023-07-08T15:32:44;33.60;63.70
18868;DHT22;9563;49.240;9.088;2023-07-08T15:35:13;33.60;61.90
18868;DHT22;9563;49.240;9.088;2023-07-08T15:37:41;33.60;60.30
18868;DHT22;9563;49.240;9.088;2023-07-08T15:40:08;33.60;62.30
18868;DHT22;9563;49.240;9.088;2023-07-08T15:42:36;33.50;59.30
18868;DHT22;9563;49.240;9.088;2023-07-08T15:45:13;33.50;59.00
18868;DHT22;9563;49.240;9.088;2023-07-08T15:47:41;33.40;59.80
18868;DHT22;9563;49.240;9.088;2023-07-08T15:50:11;33.40;62.80
18868;DHT22;9563;49.240;9.088;2023-07-08T15:52:38;33.30;62.70
18868;DHT22;9563;49.240;9.088;2023-07-08T15:55:06;33.30;59.00
18868;DHT22;9563;49.240;9.088;2023-07-08T15:57:34;33.20;60.00
18868;DHT22;9563;49.240;9.088;2023-07-08T16:00:04;33.10;58.40
18868;DHT22;9563;49.240;9.088;2023-07-08T16:02:33;33.10;60.30
18868;DHT22;9563;49.240;9.088;2023-07-08T16:05:02;33.00;58.90
18868;DHT22;9563;49.240;9.088;2023-07-08T16:07:29;33.00;59.40
18868;DHT22;9563;49.240;9.088;2023-07-08T16:09:56;32.90;59.80
18868;DHT22;9563;49.240;9.088;2023-07-08T16:12:23;32.90;58.90
18868;DHT22;9563;49.240;9.088;2023-07-08T16:14:50;32.90;58.80
18868;DHT22;9563;49.240;9.088;2023-07-08T16:17:17;32.90;60.60
18868;DHT22;9563;49.240;9.088;2023-07-08T16:19:45;32.90;61.20
18868;DHT22;9563;49.240;9.088;2023-07-08T16:22:12;32.80;62.40
18868;DHT22;9563;49.240;9.088;2023-07-08T16:24:38;32.70;63.10
18868;DHT22;9563;49.240;9.088;2023-07-08T16:27:05;32.60;60.30
18868;DHT22;9563;49.240;9.088;2023-07-08T16:29:34;32.50;59.40
18868;DHT22;9563;49.240;9.088;2023-07-08T16:32:00;32.40;59.30
18868;DHT22;9563;49.240;9.088;2023-07-08T16:34:27;32.30;59.10
18868;DHT22;9563;49.240;9.088;2023-07-08T16:36:56;32.30;60.10
18868;DHT22;9563;49.240;9.088;2023-07-08T16:39:23;32.30;58.70
18868;DHT22;9563;49.240;9.088;2023-07-08T16:41:49;32.20;60.10
18868;DHT22;9563;49.240;9.088;2023-07-08T16:44:17;32.20;59.80
18868;DHT22;9563;49.240;9.088;2023-07-08T16:46:44;32.20;60.50
18868;DHT22;9563;49.240;9.088;2023-07-08T16:49:12;32.00;60.30
18868;DHT22;9563;49.240;9.088;2023-07-08T16:51:39;31.90;60.30
18868;DHT22;9563;49.240;9.088;2023-07-08T16:54:12;31.80;60.60
18868;DHT22;9563;49.240;9.088;2023-07-08T16:56:40;31.80;60.50
18868;DHT22;9563;49.240;9.088;2023-07-08T16:59:07;31.70;61.10
18868;DHT22;9563;49.240;9.088;2023-07-08T17:01:34;31.60;61.30
18868;DHT22;9563;49.240;9.088;2023-07-08T17:04:02;31.60;61.10
18868;DHT22;9563;49.240;9.088;2023-07-08T17:06:28;31.60;62.70
18868;DHT22;9563;49.240;9.088;2023-07-08T17:08:55;31.50;62.90
18868;DHT22;9563;49.240;9.088;2023-07-08T17:11:25;31.40;63.40
18868;DHT22;9563;49.240;9.088;2023-07-08T17:13:53;31.40;64.80
18868;DHT22;9563;49.240;9.088;2023-07-08T17:16:27;31.20;64.70
18868;DHT22;9563;49.240;9.088;2023-07-08T17:18:55;31.20;65.40
18868;DHT22;9563;49.240;9.088;2023-07-08T17:21:22;31.10;65.20
18868;DHT22;9563;49.240;9.088;2023-07-08T17:23:49;31.00;64.10
18868;DHT22;9563;49.240;9.088;2023-07-08T17:26:17;31.00;64.60
18868;DHT22;9563;49.240;9.088;2023-07-08T17:28:46;30.90;65.90
18868;DHT22;9563;49.240;9.088;2023-07-08T17:31:18;30.90;65.90
18868;DHT22;9563;49.240;9.088;2023-07-08T17:33:47;30.70;66.80
18868;DHT22;9563;49.240;9.088;2023-07-08T17:36:27;30.70;66.60
18868;DHT22;9563;49.240;9.088;2023-07-08T17:38:54;30.60;66.30
18868;DHT22;9563;49.240;9.088;2023-07-08T17:41:22;30.50;66.70
18868;DHT22;9563;49.240;9.088;2023-07-08T17:43:50;30.50;66.80
18868;DHT22;9563;49.240;9.088;2023-07-08T17:46:19;30.40;67.80
18868;DHT22;9563;49.240;9.088;2023-07-08T17:48:47;30.30;67.70
18868;DHT22;9563;49.240;9.088;2023-07-08T17:51:17;30.30;68.20
18868;DHT22;9563;49.240;9.088;2023-07-08T17:53:44;30.10;68.80
18868;DHT22;9563;49.240;9.088;2023-07-08T17:56:17;30.10;70.10
18868;DHT22;9563;49.240;9.088;2023-07-08T17:58:44;30.10;70.60
18868;DHT22;9563;49.240;9.088;2023-07-08T18:01:13;30.00;70.20
18868;DHT22;9563;49.240;9.088;2023-07-08T18:03:40;29.90;70.00
18868;DHT22;9563;49.240;9.088;2023-07-08T18:06:06;29.80;70.90
18868;DHT22;9563;49.240;9.088;2023-07-08T18:08:33;29.70;71.80
18868;DHT22;9563;49.240;9.088;2023-07-08T18:11:00;29.50;72.50
18868;DHT22;9563;49.240;9.088;2023-07-08T18:13:30;29.40;74.00
18868;DHT22;9563;49.240;9.088;2023-07-08T18:15:59;29.20;76.20
18868;DHT22;9563;49.240;9.088;2023-07-08T18:18:27;29.10;77.70
18868;DHT22;9563;49.240;9.088;2023-07-08T18:20:54;28.90;78.90
18868;DHT22;9563;49.240;9.088;2023-07-08T18:23:23;28.80;80.20
18868;DHT22;9563;49.240;9.088;2023-07-08T18:25:50;28.70;81.20
18868;DHT22;9563;49.240;9.088;2023-07-08T18:28:17;28.50;82.00
18868;DHT22;9563;49.240;9.088;2023-07-08T18:30:44;28.40;82.90
18868;DHT22;9563;49.240;9.088;2023-07-08T18:33:13;28.30;82.50
18868;DHT22;9563;49.240;9.088;2023-07-08T18:35:45;28.20;82.80
18868;DHT22;9563;49.240;9.088;2023-07-08T18:38:12;28.20;82.50
18868;DHT22;9563;49.240;9.088;2023-07-08T18:40:42;28.10;83.60
18868;DHT22;9563;49.240;9.088;2023-07-08T18:43:14;27.90;84.50
18868;DHT22;9563;49.240;9.088;2023-07-08T18:45:42;27.80;85.10
18868;DHT22;9563;49.240;9.088;2023-07-08T18:48:10;27.70;84.60
18868;DHT22;9563;49.240;9.088;2023-07-08T18:50:37;27.50;84.90
18868;DHT22;9563;49.240;9.088;2023-07-08T18:53:11;27.20;90.20
18868;DHT22;9563;49.240;9.088;2023-07-08T18:55:38;27.10;91.80
18868;DHT22;9563;49.240;9.088;2023-07-08T18:58:09;26.90;90.80
18868;DHT22;9563;49.240;9.088;2023-07-08T19:00:37;26.80;91.00
18868;DHT22;9563;49.240;9.088;2023-07-08T19:03:05;26.60;92.30
18868;DHT22;9563;49.240;9.088;2023-07-08T19:05:33;26.50;93.80
18868;DHT22;9563;49.240;9.088;2023-07-08T19:08:00;26.50;94.20
18868;DHT22;9563;49.240;9.088;2023-07-08T19:10:31;26.40;94.20
18868;DHT22;9563;49.240;9.088;2023-07-08T19:12:58;26.40;95.00
18868;DHT22;9563;49.240;9.088;2023-07-08T19:15:29;26.30;96.40
18868;DHT22;9563;49.240;9.088;2023-07-08T19:17:57;26.20;96.20
18868;DHT22;9563;49.240;9.088;2023-07-08T19:20:26;26.20;96.10
18868;DHT22;9563;49.240;9.088;2023-07-08T19:22:54;26.10;96.30
18868;DHT22;9563;49.240;9.088;2023-07-08T19:25:23;26.10;96.70
18868;DHT22;9563;49.240;9.088;2023-07-08T19:27:52;26.10;96.50
18868;DHT22;9563;49.240;9.088;2023-07-08T19:30:19;26.00;97.80
18868;DHT22;9563;49.240;9.088;2023-07-08T19:32:49;25.90;97.20
18868;DHT22;9563;49.240;9.088;2023-07-08T19:35:18;25.70;96.30
18868;DHT22;9563;49.240;9.088;2023-07-08T19:37:46;25.60;98.60
18868;DHT22;9563;49.240;9.088;2023-07-08T19:40:15;25.40;99.90
18868;DHT22;9563;49.240;9.088;2023-07-08T19:42:43;25.40;99.90
18868;DHT22;9563;49.240;9.088;2023-07-08T19:45:18;25.30;99.90
18868;DHT22;9563;49.240;9.088;2023-07-08T19:47:46;25.20;99.90
18868;DHT22;9563;49.240;9.088;2023-07-08T19:50:14;25.20;99.90
18868;DHT22;9563;49.240;9.088;2023-07-08T19:52:40;25.20;99.90
18868;DHT22;9563;49.240;9.088;2023-07-08T19:55:07;25.20;99.90
18868;DHT22;9563;49.240;9.088;2023-07-08T19:57:42;25.30;99.90
18868;DHT22;9563;49.240;9.088;2023-07-08T20:00:23;25.20;99.90